createdAt,value
2023-03-01T00:01:38.879Z,15.68
2023-03-01T00:04:07.257Z,15.10
2023-03-01T00:06:35.557Z,16.08
2023-03-01T00:09:05.861Z,15.00
2023-03-01T00:11:35.647Z,14.98
2023-03-01T00:14:08.144Z,14.82
2023-03-01T00:16:39.756Z,14.48
2023-03-01T00:19:08.875Z,14.63
2023-03-01T00:21:37.316Z,15.05
2023-03-01T00:24:07.887Z,14.05
2023-03-01T00:26:36.373Z,13.73
2023-03-01T00:29:07.146Z,13.90
2023-03-01T00:31:36.023Z,14.32
2023-03-01T00:34:06.857Z,14.65
2023-03-01T00:36:37.691Z,14.23
2023-03-01T00:39:12.038Z,13.73
2023-03-01T00:41:41.196Z,14.10
2023-03-01T00:44:09.631Z,13.77
2023-03-01T00:46:38.294Z,13.50
2023-03-01T00:49:06.843Z,13.23
2023-03-01T00:51:35.294Z,13.27
2023-03-01T00:54:04.704Z,13.45
2023-03-01T00:56:34.680Z,13.38
2023-03-01T00:59:03.512Z,13.57
2023-03-01T01:01:33.118Z,14.38
2023-03-01T01:04:03.610Z,14.18
2023-03-01T01:06:33.873Z,13.73
2023-03-01T01:09:02.899Z,13.38
2023-03-01T01:11:33.339Z,13.82
2023-03-01T01:14:01.967Z,13.25
2023-03-01T01:16:32.219Z,13.50
2023-03-01T01:19:01.063Z,13.30
2023-03-01T01:21:30.368Z,12.27
2023-03-01T01:23:59.568Z,12.75
2023-03-01T01:26:30.403Z,11.82
2023-03-01T01:29:00.927Z,13.40
2023-03-01T01:31:30.824Z,13.25
2023-03-01T01:34:02.347Z,13.25
2023-03-01T01:36:31.632Z,13.15
2023-03-01T01:39:00.684Z,13.30
2023-03-01T01:41:31.123Z,13.45
2023-03-01T01:44:28.688Z,14.20
2023-03-01T01:46:59.704Z,12.65
2023-03-01T01:49:34.444Z,13.18
2023-03-01T01:52:09.993Z,13.73
2023-03-01T01:54:44.100Z,13.15
2023-03-01T01:57:17.191Z,13.13
2023-03-01T01:59:53.096Z,13.07
2023-03-01T02:02:22.703Z,13.07
2023-03-01T02:04:54.919Z,13.35
2023-03-01T02:07:25.501Z,12.88
2023-03-01T02:09:55.453Z,12.77
2023-03-01T02:12:26.807Z,13.38
2023-03-01T02:14:56.557Z,13.48
2023-03-01T02:17:25.535Z,13.48
2023-03-01T02:20:08.187Z,13.00
2023-03-01T02:22:39.768Z,12.60
2023-03-01T02:25:22.477Z,13.35
2023-03-01T02:27:58.202Z,13.57
2023-03-01T02:30:29.336Z,13.35
2023-03-01T02:33:03.877Z,13.02
2023-03-01T02:35:36.283Z,12.45
2023-03-01T02:38:06.132Z,13.55
2023-03-01T02:40:39.492Z,13.85
2023-03-01T02:43:11.358Z,13.27
2023-03-01T02:45:50.440Z,12.95
2023-03-01T02:48:18.817Z,13.10
2023-03-01T02:51:05.471Z,12.57
2023-03-01T02:53:44.710Z,12.90
2023-03-01T02:56:14.326Z,12.23
2023-03-01T02:58:49.140Z,14.00
2023-03-01T03:01:18.991Z,13.80
2023-03-01T03:03:47.433Z,13.57
2023-03-01T03:06:16.142Z,13.68
2023-03-01T03:08:45.120Z,13.52
2023-03-01T03:11:13.435Z,13.32
2023-03-01T03:13:49.213Z,14.00
2023-03-01T03:16:19.496Z,13.70
2023-03-01T03:18:47.872Z,13.45
2023-03-01T03:21:16.494Z,14.23
2023-03-01T03:23:45.000Z,14.23
2023-03-01T03:26:16.319Z,13.95
2023-03-01T03:28:44.840Z,13.80
2023-03-01T03:31:13.243Z,13.80
2023-03-01T03:33:43.061Z,13.05
2023-03-01T03:36:14.063Z,13.73
2023-03-01T03:38:43.260Z,14.10
2023-03-01T03:41:11.610Z,13.85
2023-03-01T03:43:41.200Z,13.27
2023-03-01T03:46:09.929Z,14.77
2023-03-01T03:48:40.073Z,14.13
2023-03-01T03:51:12.843Z,14.57
2023-03-01T03:53:41.388Z,14.23
2023-03-01T03:56:10.014Z,14.07
2023-03-01T03:58:38.380Z,14.32
2023-03-01T04:01:07.079Z,15.23
2023-03-01T04:03:36.325Z,13.95
2023-03-01T04:06:05.202Z,13.95
2023-03-01T04:08:35.034Z,13.25
2023-03-01T04:11:25.522Z,14.00
2023-03-01T04:13:56.372Z,13.55
2023-03-01T04:16:25.612Z,13.93
2023-03-01T04:18:54.617Z,14.07
2023-03-01T04:21:23.964Z,14.25
2023-03-01T04:23:53.882Z,14.18
2023-03-01T04:26:22.410Z,14.43
2023-03-01T04:28:51.669Z,13.35
2023-03-01T04:31:22.698Z,13.43
2023-03-01T04:33:53.660Z,14.20
2023-03-01T04:36:24.432Z,13.70
2023-03-01T04:38:54.309Z,13.32
2023-03-01T04:41:25.787Z,14.63
2023-03-01T04:43:54.197Z,12.23
2023-03-01T04:46:29.430Z,12.63
2023-03-01T04:48:58.102Z,17.70
2023-03-01T04:51:26.540Z,17.23
2023-03-01T04:53:56.660Z,13.65
2023-03-01T04:56:25.195Z,14.68
2023-03-01T04:58:55.999Z,14.07
2023-03-01T05:01:24.394Z,13.85
2023-03-01T05:03:54.384Z,15.32
2023-03-01T05:06:23.440Z,14.77
2023-03-01T05:08:51.894Z,15.40
2023-03-01T05:11:22.007Z,13.98
2023-03-01T05:13:51.052Z,13.70
2023-03-01T05:16:21.152Z,14.43
2023-03-01T05:18:51.648Z,13.85
2023-03-01T05:21:20.216Z,14.65
2023-03-01T05:23:48.524Z,13.85
2023-03-01T05:26:33.892Z,13.68
2023-03-01T05:29:03.760Z,14.50
2023-03-01T05:31:32.742Z,13.95
2023-03-01T05:34:01.027Z,15.02
2023-03-01T05:36:29.781Z,18.85
2023-03-01T05:38:58.275Z,19.40
2023-03-01T05:41:26.667Z,14.73
2023-03-01T05:43:54.978Z,15.25
2023-03-01T05:46:25.716Z,15.13
2023-03-01T05:48:54.164Z,14.85
2023-03-01T05:51:23.324Z,15.05
2023-03-01T05:53:51.942Z,13.93
2023-03-01T05:56:20.199Z,15.00
2023-03-01T05:58:50.494Z,14.18
2023-03-01T06:01:18.874Z,15.82
2023-03-01T06:03:49.597Z,20.65
2023-03-01T06:06:18.121Z,20.17
2023-03-01T06:08:46.474Z,39.00
2023-03-01T06:11:14.714Z,23.80
2023-03-01T06:13:44.190Z,23.48
2023-03-01T06:16:13.542Z,19.00
2023-03-01T06:18:42.634Z,17.20
2023-03-01T06:21:12.855Z,18.20
2023-03-01T06:23:41.177Z,19.67
2023-03-01T06:26:10.688Z,18.85
2023-03-01T06:28:39.226Z,16.23
2023-03-01T06:31:09.990Z,17.85
2023-03-01T06:33:38.589Z,20.27
2023-03-01T06:36:07.412Z,20.90
2023-03-01T06:38:37.370Z,21.45
2023-03-01T06:41:05.979Z,16.42
2023-03-01T06:43:34.340Z,18.00
2023-03-01T06:46:02.979Z,17.75
2023-03-01T06:48:31.561Z,17.95
2023-03-01T06:51:01.802Z,17.27
2023-03-01T06:53:30.318Z,16.83
2023-03-01T06:56:01.380Z,17.13
2023-03-01T06:58:29.756Z,18.63
2023-03-01T07:00:58.201Z,18.25
2023-03-01T07:03:26.595Z,19.20
2023-03-01T07:05:54.966Z,17.38
2023-03-01T07:08:23.338Z,18.90
2023-03-01T07:10:57.684Z,18.02
2023-03-01T07:13:27.626Z,18.58
2023-03-01T07:15:56.377Z,18.38
2023-03-01T07:18:24.749Z,17.00
2023-03-01T07:20:53.098Z,19.98
2023-03-01T07:23:21.746Z,17.55
2023-03-01T07:25:54.813Z,17.95
2023-03-01T07:28:27.220Z,19.20
2023-03-01T07:30:56.279Z,18.58
2023-03-01T07:33:24.640Z,15.00
2023-03-01T07:35:58.936Z,14.40
2023-03-01T07:38:27.457Z,14.95
2023-03-01T07:40:58.420Z,17.00
2023-03-01T07:43:28.385Z,16.88
2023-03-01T07:45:56.806Z,15.30
2023-03-01T07:48:25.125Z,14.57
2023-03-01T07:50:54.563Z,14.77
2023-03-01T07:53:23.008Z,14.15
2023-03-01T07:55:51.290Z,14.52
2023-03-01T07:58:19.633Z,14.60
2023-03-01T08:00:49.437Z,14.88
2023-03-01T08:05:44.809Z,13.95
2023-03-01T08:08:13.164Z,14.13
2023-03-01T08:10:41.478Z,14.90
2023-03-01T08:13:10.406Z,14.88
2023-03-01T08:15:38.724Z,13.90
2023-03-01T08:18:08.507Z,15.32
2023-03-01T08:20:36.884Z,15.20
2023-03-01T08:23:05.162Z,15.10
2023-03-01T08:25:33.757Z,15.60
2023-03-01T08:28:02.075Z,14.80
2023-03-01T08:30:30.609Z,16.20
2023-03-01T08:32:59.088Z,14.65
2023-03-01T08:35:28.980Z,15.10
2023-03-01T08:37:57.719Z,15.05
2023-03-01T08:40:25.960Z,14.73
2023-03-01T08:42:54.273Z,14.38
2023-03-01T08:45:23.105Z,15.45
2023-03-01T08:47:54.968Z,14.15
2023-03-01T08:50:25.470Z,14.60
2023-03-01T08:52:55.249Z,15.02
2023-03-01T08:55:23.847Z,15.23
2023-03-01T08:57:52.187Z,15.07
2023-03-01T09:00:21.470Z,15.00
2023-03-01T09:02:49.790Z,14.00
2023-03-01T09:05:20.240Z,14.80
2023-03-01T09:07:48.657Z,15.00
2023-03-01T09:10:18.799Z,12.75
2023-03-01T09:12:47.145Z,12.90
2023-03-01T09:15:15.517Z,13.20
2023-03-01T09:17:43.974Z,13.88
2023-03-01T09:20:13.357Z,13.82
2023-03-01T09:22:41.700Z,13.73
2023-03-01T09:25:10.915Z,13.98
2023-03-01T09:27:40.683Z,11.75
2023-03-01T09:30:11.179Z,12.82
2023-03-01T09:32:43.769Z,12.88
2023-03-01T09:35:12.148Z,12.73
2023-03-01T09:37:40.923Z,13.40
2023-03-01T09:40:16.773Z,12.15
2023-03-01T09:42:55.365Z,12.88
2023-03-01T09:45:30.760Z,13.63
2023-03-01T09:47:59.453Z,12.88
2023-03-01T09:50:30.612Z,12.75
2023-03-01T09:53:06.837Z,13.40
2023-03-01T09:55:44.831Z,13.77
2023-03-01T09:58:41.082Z,12.50
2023-03-01T10:01:26.217Z,13.82
2023-03-01T10:04:07.574Z,13.98
2023-03-01T10:06:35.977Z,13.60
2023-03-01T10:09:10.125Z,14.25
2023-03-01T10:11:41.952Z,15.30
2023-03-01T10:14:22.205Z,14.13
2023-03-01T10:16:55.813Z,15.18
2023-03-01T10:21:54.268Z,14.20
2023-03-01T10:24:23.002Z,14.30
2023-03-01T10:26:58.584Z,13.70
2023-03-01T10:29:34.109Z,14.05
2023-03-01T10:32:03.140Z,13.25
2023-03-01T10:34:33.761Z,12.93
2023-03-01T10:37:11.547Z,13.25
2023-03-01T10:39:56.153Z,12.25
2023-03-01T10:42:29.713Z,13.80
2023-03-01T10:45:00.766Z,12.30
2023-03-01T10:47:30.818Z,13.90
2023-03-01T10:50:03.043Z,13.23
2023-03-01T10:52:36.946Z,12.93
2023-03-01T10:55:27.107Z,13.80
2023-03-01T10:58:09.735Z,12.57
2023-03-01T11:00:50.438Z,12.13
2023-03-01T11:03:23.323Z,12.02
2023-03-01T11:06:04.713Z,14.60
2023-03-01T11:08:39.096Z,14.02
2023-03-01T11:11:21.690Z,13.75
2023-03-01T11:13:59.024Z,13.85
2023-03-01T11:16:35.015Z,15.43
2023-03-01T11:19:18.698Z,12.63
2023-03-01T11:21:54.649Z,15.50
2023-03-01T11:24:28.753Z,13.55
2023-03-01T11:26:58.212Z,13.93
2023-03-01T11:29:43.227Z,13.88
2023-03-01T11:32:18.372Z,14.60
2023-03-01T11:34:51.914Z,13.93
2023-03-01T11:37:31.729Z,14.65
2023-03-01T11:40:08.291Z,14.45
2023-03-01T11:42:50.429Z,13.73
2023-03-01T11:45:18.803Z,14.35
2023-03-01T11:48:08.598Z,15.82
2023-03-01T11:50:44.614Z,14.18
2023-03-01T11:53:27.738Z,13.98
2023-03-01T11:56:06.945Z,14.07
2023-03-01T11:58:56.290Z,13.32
2023-03-01T12:01:40.918Z,14.73
2023-03-01T12:04:36.604Z,14.23
2023-03-01T12:07:13.851Z,14.15
2023-03-01T12:09:56.148Z,14.00
2023-03-01T12:12:38.778Z,14.15
2023-03-01T12:15:32.048Z,14.63
2023-03-01T12:18:22.599Z,13.25
2023-03-01T12:21:03.270Z,12.68
2023-03-01T12:23:51.897Z,13.48
2023-03-01T12:26:28.446Z,13.90
2023-03-01T12:29:21.032Z,15.30
2023-03-01T12:32:10.690Z,15.55
2023-03-01T12:35:09.063Z,14.98
2023-03-01T12:37:53.754Z,13.63
2023-03-01T12:40:44.731Z,14.27
2023-03-01T12:43:34.344Z,15.90
2023-03-01T12:46:18.644Z,15.05
2023-03-01T12:48:59.074Z,15.02
2023-03-01T12:51:32.137Z,14.95
2023-03-01T12:54:07.496Z,13.45
2023-03-01T12:56:41.132Z,13.88
2023-03-01T13:01:54.401Z,14.95
2023-03-01T13:04:41.494Z,15.52
2023-03-01T13:07:26.758Z,14.63
2023-03-01T13:10:04.993Z,14.20
2023-03-01T13:12:48.158Z,14.70
2023-03-01T13:15:30.683Z,14.43
2023-03-01T13:18:00.586Z,13.18
2023-03-01T13:20:36.293Z,14.55
2023-03-01T13:23:09.810Z,15.77
2023-03-01T13:26:08.837Z,17.23
2023-03-01T13:28:48.691Z,16.30
2023-03-01T13:32:04.795Z,14.68
2023-03-01T13:34:47.825Z,15.07
2023-03-01T13:37:31.692Z,15.57
2023-03-01T13:40:05.727Z,14.98
2023-03-01T13:42:39.621Z,15.82
2023-03-01T13:45:19.428Z,16.55
2023-03-01T13:47:50.474Z,15.80
2023-03-01T13:50:22.544Z,15.00
2023-03-01T13:52:54.812Z,16.73
2023-03-01T13:55:27.288Z,14.73
2023-03-01T13:58:00.224Z,16.48
2023-03-01T14:00:36.978Z,15.20
2023-03-01T14:03:16.328Z,15.48
2023-03-01T14:06:12.674Z,14.63
2023-03-01T14:08:42.822Z,16.15
2023-03-01T14:11:48.275Z,15.80
2023-03-01T14:14:49.164Z,14.75
2023-03-01T14:17:40.142Z,14.10
2023-03-01T14:20:15.772Z,15.35
2023-03-01T14:22:45.426Z,13.43
2023-03-01T14:25:25.017Z,15.05
2023-03-01T14:28:05.928Z,13.52
2023-03-01T14:30:40.011Z,13.98
2023-03-01T14:33:21.451Z,13.48
2023-03-01T14:35:57.062Z,15.10
2023-03-01T14:38:30.258Z,13.65
2023-03-01T14:41:03.391Z,12.52
2023-03-01T14:43:33.888Z,12.20
2023-03-01T14:46:04.110Z,13.02
2023-03-01T14:48:34.733Z,13.60
2023-03-01T14:51:03.419Z,15.38
2023-03-01T14:53:42.776Z,13.50
2023-03-01T14:56:20.006Z,12.35
2023-03-01T14:58:49.545Z,12.93
2023-03-01T15:01:20.579Z,12.07
2023-03-01T15:03:51.233Z,12.85
2023-03-01T15:06:22.308Z,12.18
2023-03-01T15:08:54.196Z,12.75
2023-03-01T15:11:25.899Z,13.88
2023-03-01T15:13:55.403Z,12.38
2023-03-01T15:16:28.927Z,11.50
2023-03-01T15:21:30.192Z,12.30
2023-03-01T15:24:05.129Z,11.52
2023-03-01T15:26:40.092Z,11.80
2023-03-01T15:29:17.827Z,11.68
2023-03-01T15:31:58.420Z,12.38
2023-03-01T15:34:28.320Z,12.00
2023-03-01T15:36:58.349Z,12.23
2023-03-01T15:39:39.539Z,11.50
2023-03-01T15:42:13.431Z,11.18
2023-03-01T15:44:47.027Z,11.68
2023-03-01T15:47:29.677Z,12.32
2023-03-01T15:49:59.419Z,12.73
2023-03-01T15:52:31.112Z,12.27
2023-03-01T15:55:02.248Z,11.85
2023-03-01T15:57:30.814Z,12.68
2023-03-01T15:59:59.152Z,11.82
2023-03-01T16:02:28.993Z,13.05
2023-03-01T16:04:58.131Z,13.02
2023-03-01T16:07:29.060Z,12.88
2023-03-01T16:09:57.448Z,13.45
2023-03-01T16:12:26.422Z,12.93
2023-03-01T16:14:55.172Z,13.93
2023-03-01T16:17:23.442Z,15.05
2023-03-01T16:19:53.562Z,15.52
2023-03-01T16:22:26.300Z,14.85
2023-03-01T16:24:54.729Z,13.30
2023-03-01T16:27:23.511Z,15.98
2023-03-01T16:29:52.276Z,14.55
2023-03-01T16:32:20.995Z,15.05
2023-03-01T16:34:50.473Z,13.88
2023-03-01T16:37:20.436Z,13.05
2023-03-01T16:39:50.029Z,12.90
2023-03-01T16:42:18.937Z,15.30
2023-03-01T16:44:47.327Z,16.30
2023-03-01T16:47:15.698Z,17.88
2023-03-01T16:49:44.228Z,14.13
2023-03-01T16:52:12.522Z,13.07
2023-03-01T16:54:42.287Z,12.93
2023-03-01T16:57:10.586Z,11.93
2023-03-01T16:59:38.918Z,16.67
2023-03-01T17:02:09.284Z,12.07
2023-03-01T17:04:37.584Z,12.55
2023-03-01T17:07:05.983Z,12.25
2023-03-01T17:09:37.524Z,12.45
2023-03-01T17:12:07.471Z,11.85
2023-03-01T17:14:35.747Z,11.95
2023-03-01T17:17:05.302Z,12.27
2023-03-01T17:19:34.960Z,12.50
2023-03-01T17:22:03.728Z,11.70
2023-03-01T17:24:35.143Z,12.20
2023-03-01T17:27:03.709Z,13.57
2023-03-01T17:29:33.802Z,13.55
2023-03-01T17:32:02.599Z,13.32
2023-03-01T17:34:33.389Z,12.68
2023-03-01T17:37:02.162Z,14.60
2023-03-01T17:39:36.257Z,15.10
2023-03-01T17:42:06.812Z,14.55
2023-03-01T17:44:37.530Z,13.90
2023-03-01T17:47:07.870Z,14.40
2023-03-01T17:49:36.183Z,13.82
2023-03-01T17:52:04.724Z,14.95
2023-03-01T17:54:33.673Z,14.70
2023-03-01T17:57:02.180Z,15.25
2023-03-01T17:59:33.562Z,15.07
2023-03-01T18:02:03.398Z,15.20
2023-03-01T18:04:32.517Z,14.30
2023-03-01T18:07:01.784Z,14.52
2023-03-01T18:09:30.650Z,14.73
2023-03-01T18:11:58.989Z,14.80
2023-03-01T18:14:29.909Z,13.88
2023-03-01T18:16:58.351Z,14.32
2023-03-01T18:19:28.787Z,13.20
2023-03-01T18:21:57.176Z,13.73
2023-03-01T18:24:25.819Z,12.98
2023-03-01T18:26:54.216Z,13.75
2023-03-01T18:29:22.564Z,13.98
2023-03-01T18:31:50.906Z,14.45
2023-03-01T18:34:19.222Z,13.85
2023-03-01T18:37:08.154Z,14.20
2023-03-01T18:39:37.264Z,13.32
2023-03-01T18:42:05.804Z,13.85
2023-03-01T18:44:34.155Z,18.05
2023-03-01T18:47:03.383Z,17.88
2023-03-01T18:49:31.695Z,16.27
2023-03-01T18:52:01.918Z,15.52
2023-03-01T18:54:30.781Z,16.35
2023-03-01T18:56:59.230Z,16.80
2023-03-01T18:59:27.699Z,17.48
2023-03-01T19:01:56.148Z,16.55
2023-03-01T19:04:24.524Z,17.42
2023-03-01T19:06:52.827Z,14.75
2023-03-01T19:09:23.154Z,16.38
2023-03-01T19:11:51.464Z,16.52
2023-03-01T19:14:19.852Z,14.98
2023-03-01T19:16:48.187Z,15.10
2023-03-01T19:19:16.501Z,15.45
2023-03-01T19:21:50.607Z,13.98
2023-03-01T19:24:23.041Z,14.32
2023-03-01T19:26:51.404Z,13.60
2023-03-01T19:29:19.784Z,13.60
2023-03-01T19:31:48.213Z,14.85
2023-03-01T19:34:17.078Z,14.43
2023-03-01T19:36:47.140Z,15.02
2023-03-01T19:39:16.164Z,15.57
2023-03-01T19:41:48.878Z,16.55
2023-03-01T19:44:18.514Z,16.92
2023-03-01T19:46:46.824Z,16.88
2023-03-01T19:49:16.048Z,18.35
2023-03-01T19:51:44.779Z,18.42
2023-03-01T19:54:15.321Z,20.95
2023-03-01T19:56:46.736Z,16.75
2023-03-01T19:59:17.498Z,16.40
2023-03-01T20:01:47.485Z,15.50
2023-03-01T20:04:17.440Z,16.30
2023-03-01T20:06:48.195Z,15.13
2023-03-01T20:09:21.808Z,16.35
2023-03-01T20:11:54.519Z,15.45
2023-03-01T20:14:24.640Z,14.43
2023-03-01T20:16:54.946Z,20.38
2023-03-01T20:19:24.604Z,19.15
2023-03-01T20:21:54.386Z,14.25
2023-03-01T20:24:23.851Z,14.38
2023-03-01T20:26:55.186Z,13.55
2023-03-01T20:29:25.019Z,12.90
2023-03-01T20:31:55.106Z,12.90
2023-03-01T20:34:24.745Z,12.77
2023-03-01T20:36:55.094Z,13.68
2023-03-01T20:39:25.916Z,12.68
2023-03-01T20:41:58.361Z,12.73
2023-03-01T20:44:28.101Z,12.40
2023-03-01T20:46:58.104Z,12.27
2023-03-01T20:49:27.818Z,12.73
2023-03-01T20:51:57.611Z,12.75
2023-03-01T20:54:28.425Z,12.38
2023-03-01T20:56:59.932Z,12.63
2023-03-01T20:59:29.956Z,12.95
2023-03-01T21:02:00.132Z,12.98
2023-03-01T21:04:29.822Z,12.32
2023-03-01T21:06:59.576Z,13.77
2023-03-01T21:09:29.510Z,13.13
2023-03-01T21:12:00.673Z,17.15
2023-03-01T21:14:30.437Z,38.67
2023-03-01T21:17:10.266Z,23.30
2023-03-01T21:19:44.273Z,13.85
2023-03-01T21:22:14.894Z,14.20
2023-03-01T21:24:45.243Z,15.27
2023-03-01T21:27:15.934Z,13.63
2023-03-01T21:29:46.536Z,12.32
2023-03-01T21:32:16.064Z,13.75
2023-03-01T21:34:47.279Z,13.32
2023-03-01T21:37:17.191Z,13.23
2023-03-01T21:39:46.175Z,12.63
2023-03-01T21:42:16.471Z,12.73
2023-03-01T21:44:45.329Z,12.07
2023-03-01T21:47:14.008Z,12.18
2023-03-01T21:49:42.377Z,12.43
2023-03-01T21:52:17.215Z,13.57
2023-03-01T21:54:46.423Z,13.27
2023-03-01T21:57:17.317Z,12.23
2023-03-01T21:59:46.077Z,12.10
2023-03-01T22:02:15.981Z,12.63
2023-03-01T22:04:45.527Z,12.38
2023-03-01T22:07:13.821Z,12.45
2023-03-01T22:09:42.251Z,12.45
2023-03-01T22:12:10.497Z,12.88
2023-03-01T22:14:40.691Z,12.18
2023-03-01T22:17:09.316Z,12.82
2023-03-01T22:19:37.915Z,13.35
2023-03-01T22:22:06.599Z,14.02
2023-03-01T22:24:34.999Z,14.07
2023-03-01T22:27:03.285Z,13.38
2023-03-01T22:29:32.063Z,13.80
2023-03-01T22:32:02.192Z,13.50
2023-03-01T22:34:30.847Z,15.35
2023-03-01T22:36:59.383Z,15.82
2023-03-01T22:39:27.684Z,14.30
2023-03-01T22:41:56.281Z,14.20
2023-03-01T22:44:25.567Z,13.95
2023-03-01T22:46:54.259Z,13.82
2023-03-01T22:49:24.032Z,12.95
2023-03-01T22:51:53.692Z,15.55
2023-03-01T22:54:22.221Z,13.88
2023-03-01T22:56:51.152Z,13.10
2023-03-01T22:59:23.242Z,12.90
2023-03-01T23:01:52.230Z,12.90
2023-03-01T23:04:22.545Z,13.18
2023-03-01T23:06:54.307Z,13.52
2023-03-01T23:09:26.130Z,13.23
2023-03-01T23:11:55.773Z,13.20
2023-03-01T23:14:24.897Z,14.05
2023-03-01T23:16:54.162Z,12.98
2023-03-01T23:19:23.156Z,12.63
2023-03-01T23:21:54.644Z,13.00
2023-03-01T23:24:25.922Z,12.82
2023-03-01T23:26:54.529Z,12.80
2023-03-01T23:29:23.496Z,12.65
2023-03-01T23:31:51.838Z,13.55
2023-03-01T23:34:21.110Z,12.32
2023-03-01T23:36:49.384Z,12.45
2023-03-01T23:39:19.508Z,13.15
2023-03-01T23:41:48.021Z,13.88
2023-03-01T23:44:18.030Z,13.55
2023-03-01T23:46:48.082Z,14.15
2023-03-01T23:49:18.954Z,13.73
2023-03-01T23:51:48.998Z,13.73
2023-03-01T23:54:20.541Z,13.25
2023-03-01T23:56:49.413Z,12.80
2023-03-01T23:59:20.087Z,13.30
